Time;durP1;ratioP1;P1;durP2;ratioP2;P2;SDS_P1;SDS_P2;PMS_P1;PMS_P2;Temp;Humidity;BMP_temperature;BMP_pressure;BME280_temperature;BME280_humidity;BME280_pressure;Samples;Min_cycle;Max_cycle;Signal;HPM_P1;HPM_P2
2024/04/09 00:01:36;;;;;;;9.77;7.27;;;;;;;14.81;100.00;99739.28;5362396;26;20252;-74
2024/04/09 00:04:02;;;;;;;15.60;8.00;;;;;;;14.80;100.00;99733.06;5366634;26;20235;-74
2024/04/09 00:06:30;;;;;;;9.50;6.90;;;;;;;14.82;100.00;99735.59;5372810;26;20345;-73
2024/04/09 00:08:56;;;;;;;12.53;6.73;;;;;;;14.82;100.00;99730.25;5382505;26;20249;-73
2024/04/09 00:11:25;;;;;;;9.27;5.23;;;;;;;14.77;100.00;99719.09;5374880;26;20345;-74
2024/04/09 00:13:51;;;;;;;7.03;5.67;;;;;;;14.70;100.00;99718.84;5372542;26;20592;-73
2024/04/09 00:16:25;;;;;;;8.63;4.90;;;;;;;14.64;100.00;99714.06;5365659;26;20631;-73
2024/04/09 00:18:53;;;;;;;7.77;5.23;;;;;;;14.53;100.00;99717.75;5369019;26;20225;-74
2024/04/09 00:21:22;;;;;;;10.87;5.40;;;;;;;14.46;100.00;99711.31;5370960;26;20336;-73
2024/04/09 00:23:48;;;;;;;7.40;6.07;;;;;;;14.41;100.00;99718.06;5366684;26;20270;-73
2024/04/09 00:26:17;;;;;;;9.33;5.67;;;;;;;14.38;100.00;99711.13;5375560;26;20361;-74
2024/04/09 00:28:43;;;;;;;9.77;6.10;;;;;;;14.36;100.00;99718.47;5361058;26;20243;-74
2024/04/09 00:31:11;;;;;;;12.90;7.00;;;;;;;14.35;100.00;99716.78;5368186;26;20271;-73
2024/04/09 00:33:40;;;;;;;10.40;6.40;;;;;;;14.36;100.00;99728.34;5357517;26;20237;-74
2024/04/09 00:36:09;;;;;;;11.17;6.90;;;;;;;14.36;100.00;99726.50;5364006;26;20626;-74
2024/04/09 00:38:35;;;;;;;11.30;6.77;;;;;;;14.36;100.00;99717.63;5360307;26;20286;-74
2024/04/09 00:41:05;;;;;;;9.73;7.40;;;;;;;14.37;100.00;99716.63;5370138;26;20231;-74
2024/04/09 00:43:31;;;;;;;9.03;7.37;;;;;;;14.37;100.00;99720.16;5368448;26;20839;-73
2024/04/09 00:46:01;;;;;;;9.27;7.60;;;;;;;14.39;100.00;99720.84;5369597;26;20650;-74
2024/04/09 00:48:27;;;;;;;8.83;7.60;;;;;;;14.37;100.00;99730.88;5366919;26;20236;-73
2024/04/09 00:50:58;;;;;;;10.23;6.70;;;;;;;14.32;100.00;99726.94;5376039;26;20251;-73
2024/04/09 00:53:25;;;;;;;8.23;6.40;;;;;;;14.25;100.00;99721.31;5376235;26;20232;-73
2024/04/09 00:55:54;;;;;;;10.40;6.87;;;;;;;14.20;100.00;99724.41;5373592;26;20377;-73
2024/04/09 00:58:20;;;;;;;8.33;6.67;;;;;;;14.15;100.00;99723.97;5371065;26;20801;-74
2024/04/09 01:00:49;;;;;;;12.33;7.20;;;;;;;14.12;100.00;99716.25;5386348;26;20313;-74
2024/04/09 01:03:14;;;;;;;9.10;6.77;;;;;;;14.10;100.00;99718.22;5380698;26;20270;-74
2024/04/09 01:05:43;;;;;;;10.00;7.23;;;;;;;14.10;100.00;99714.72;5384246;26;20597;-73
2024/04/09 01:08:11;;;;;;;10.37;7.20;;;;;;;14.11;100.00;99713.72;5374331;26;20864;-74
2024/04/09 01:10:39;;;;;;;9.27;7.20;;;;;;;14.14;100.00;99721.47;5364240;26;20235;-73
2024/04/09 01:13:05;;;;;;;13.13;7.20;;;;;;;14.15;100.00;99715.13;5366652;26;20231;-73
2024/04/09 01:15:33;;;;;;;15.03;9.60;;;;;;;14.18;100.00;99721.03;5371671;26;20239;-74
2024/04/09 01:17:59;;;;;;;9.03;7.03;;;;;;;14.18;100.00;99718.34;5381632;26;20735;-73
2024/04/09 01:20:27;;;;;;;13.23;7.93;;;;;;;14.21;100.00;99719.91;5391782;26;20274;-73
2024/04/09 01:22:55;;;;;;;11.27;8.27;;;;;;;14.24;100.00;99716.94;5386920;26;20801;-73
2024/04/09 01:25:24;;;;;;;11.13;7.90;;;;;;;14.26;100.00;99714.97;5382125;26;20589;-74
2024/04/09 01:27:49;;;;;;;10.73;7.13;;;;;;;14.28;100.00;99713.00;5380060;26;20244;-74
2024/04/09 01:30:18;;;;;;;14.23;6.70;;;;;;;14.25;100.00;99703.41;5378595;26;20806;-73
2024/04/09 01:32:44;;;;;;;7.93;5.90;;;;;;;14.21;100.00;99704.69;5388637;26;20243;-74
2024/04/09 01:35:14;;;;;;;6.37;5.67;;;;;;;14.20;100.00;99705.66;5371576;26;20739;-73
2024/04/09 01:37:40;;;;;;;11.30;7.37;;;;;;;14.19;100.00;99700.44;5389038;26;20226;-73
2024/04/09 01:40:12;;;;;;;8.13;6.53;;;;;;;14.19;100.00;99695.94;5372781;26;20286;-73
2024/04/09 01:42:38;;;;;;;7.60;6.43;;;;;;;14.19;100.00;99692.41;5387374;26;20274;-74
2024/04/09 01:45:07;;;;;;;10.37;6.33;;;;;;;14.19;100.00;99693.25;5375679;26;20657;-74
2024/04/09 01:47:33;;;;;;;10.20;6.73;;;;;;;14.17;100.00;99692.56;5384405;26;20610;-73
2024/04/09 01:50:03;;;;;;;8.47;6.13;;;;;;;14.18;100.00;99698.75;5376432;26;20234;-74
2024/04/09 01:52:30;;;;;;;9.57;7.13;;;;;;;14.15;100.00;99694.53;5374162;26;20235;-74
2024/04/09 01:54:58;;;;;;;9.60;7.70;;;;;;;14.13;100.00;99696.53;5389709;26;20269;-74
2024/04/09 01:57:29;;;;;;;8.63;7.47;;;;;;;14.12;100.00;99684.13;5379503;26;20800;-74
2024/04/09 01:59:59;;;;;;;13.37;7.87;;;;;;;14.13;100.00;99690.34;5389549;26;20277;-73
2024/04/09 02:02:24;;;;;;;11.57;8.17;;;;;;;14.14;100.00;99678.63;5375359;26;20416;-74
2024/04/09 02:04:53;;;;;;;14.13;7.93;;;;;;;14.14;100.00;99682.16;5382207;26;20246;-74
2024/04/09 02:07:19;;;;;;;12.73;8.57;;;;;;;14.14;100.00;99675.97;5376713;26;20322;-73
2024/04/09 02:09:50;;;;;;;12.47;8.90;;;;;;;14.16;100.00;99680.16;5388060;26;20223;-74
2024/04/09 02:12:16;;;;;;;11.87;8.10;;;;;;;14.17;100.00;99681.84;5374765;26;20220;-74
2024/04/09 02:14:48;;;;;;;13.47;8.30;;;;;;;14.19;100.00;99679.03;5372052;26;20247;-74
2024/04/09 02:17:14;;;;;;;10.93;8.90;;;;;;;14.21;100.00;99674.38;5375902;26;20236;-73
2024/04/09 02:19:43;;;;;;;15.20;10.00;;;;;;;14.24;100.00;99669.59;5374117;26;20634;-74
2024/04/09 02:22:08;;;;;;;15.33;9.57;;;;;;;14.26;100.00;99666.75;5379343;26;20730;-74
2024/04/09 02:24:36;;;;;;;14.97;10.23;;;;;;;14.27;100.00;99664.94;5380401;26;20290;-73
2024/04/09 02:27:03;;;;;;;15.60;10.30;;;;;;;14.28;100.00;99662.09;5379555;26;20274;-74
2024/04/09 02:29:32;;;;;;;19.37;11.37;;;;;;;14.30;100.00;99678.03;5392398;26;20238;-74
2024/04/09 02:32:00;;;;;;;15.03;11.03;;;;;;;14.32;100.00;99687.63;5373770;26;20238;-74
2024/04/09 02:34:29;;;;;;;13.80;10.47;;;;;;;14.34;100.00;99682.94;5376302;26;20232;-74
2024/04/09 02:36:54;;;;;;;13.97;10.43;;;;;;;14.38;100.00;99679.00;5370433;26;20228;-74
2024/04/09 02:39:23;;;;;;;14.03;9.50;;;;;;;14.40;100.00;99690.44;5383642;26;20492;-73
2024/04/09 02:41:48;;;;;;;15.83;9.33;;;;;;;14.38;100.00;99687.03;5379890;26;20631;-74
2024/04/09 02:44:17;;;;;;;11.90;9.00;;;;;;;14.39;100.00;99683.34;5378329;26;20243;-74
2024/04/09 02:46:42;;;;;;;11.83;8.80;;;;;;;14.37;100.00;99682.66;5375909;26;20230;-73
2024/04/09 02:49:13;;;;;;;9.70;8.70;;;;;;;14.34;100.00;99700.84;5376169;26;20243;-74
2024/04/09 02:51:39;;;;;;;11.87;9.80;;;;;;;14.33;100.00;99689.28;5386071;26;20285;-73
2024/04/09 02:54:07;;;;;;;12.37;8.90;;;;;;;14.33;100.00;99689.28;5358639;26;20329;-74
2024/04/09 02:56:34;;;;;;;12.60;8.23;;;;;;;14.37;100.00;99688.00;5376369;26;20958;-74
2024/04/09 02:59:03;;;;;;;17.80;8.83;;;;;;;14.37;100.00;99674.63;5371094;26;20286;-74
2024/04/09 03:01:29;;;;;;;10.97;7.50;;;;;;;14.35;100.00;99681.94;5380270;26;20385;-74
2024/04/09 03:03:59;;;;;;;15.60;7.10;;;;;;;14.36;100.00;99690.84;5388280;26;20242;-74
2024/04/09 03:06:28;;;;;;;11.80;7.00;;;;;;;14.33;100.00;99681.25;5371976;26;20253;-74
2024/04/09 03:08:57;;;;;;;13.57;7.93;;;;;;;14.32;100.00;99673.38;5382747;26;20641;-74
2024/04/09 03:11:23;;;;;;;8.90;7.73;;;;;;;14.35;100.00;99671.25;5373716;26;20673;-74
2024/04/09 03:13:52;;;;;;;11.43;6.83;;;;;;;14.36;100.00;99667.56;5372515;26;20331;-74
2024/04/09 03:16:19;;;;;;;10.20;7.17;;;;;;;14.39;100.00;99667.28;5376192;26;20278;-74
2024/04/09 03:18:48;;;;;;;11.90;6.30;;;;;;;14.40;100.00;99660.97;5386105;26;20291;-74
2024/04/09 03:21:14;;;;;;;10.73;5.83;;;;;;;14.37;100.00;99663.91;5370099;26;20736;-73
2024/04/09 03:23:45;;;;;;;11.70;6.07;;;;;;;14.36;100.00;99651.50;5370887;26;20290;-72
2024/04/09 03:26:12;;;;;;;14.33;5.47;;;;;;;14.36;100.00;99659.53;5371310;26;20602;-73
2024/04/09 03:28:41;;;;;;;12.47;5.63;;;;;;;14.37;100.00;99666.59;5370635;26;20323;-74
2024/04/09 03:31:08;;;;;;;11.17;4.70;;;;;;;14.41;100.00;99657.31;5369857;26;20220;-73
2024/04/09 03:33:37;;;;;;;14.30;3.97;;;;;;;14.40;100.00;99647.56;5376092;26;20337;-72
2024/04/09 03:36:05;;;;;;;8.63;3.93;;;;;;;14.42;100.00;99647.44;5368833;26;20792;-73
2024/04/09 03:38:33;;;;;;;13.83;4.17;;;;;;;14.46;100.00;99646.16;5368736;26;20815;-73
2024/04/09 03:41:06;;;;;;;9.50;4.33;;;;;;;14.50;100.00;99632.34;5382106;26;20230;-72
2024/04/09 03:43:34;;;;;;;13.50;5.07;;;;;;;14.53;100.00;99640.06;5375710;26;20235;-73
2024/04/09 03:46:03;;;;;;;11.27;4.10;;;;;;;14.55;100.00;99622.00;5389117;26;20283;-73
2024/04/09 03:48:31;;;;;;;9.77;4.57;;;;;;;14.54;100.00;99614.94;5371922;26;20278;-73
2024/04/09 03:50:58;;;;;;;13.17;5.10;;;;;;;14.56;100.00;99618.31;5376931;26;20237;-73
2024/04/09 03:53:26;;;;;;;17.77;4.83;;;;;;;14.59;100.00;99619.88;5381252;26;20381;-73
2024/04/09 03:55:53;;;;;;;14.30;4.90;;;;;;;14.57;100.00;99620.00;5370666;26;20241;-73
2024/04/09 03:58:24;;;;;;;14.00;5.10;;;;;;;14.57;100.00;99629.88;5380353;26;20235;-73
2024/04/09 04:00:54;;;;;;;11.53;4.60;;;;;;;14.56;100.00;99634.41;5365729;26;20270;-73
2024/04/09 04:03:23;;;;;;;11.30;4.70;;;;;;;14.56;100.00;99638.91;5371550;26;20999;-73
2024/04/09 04:05:52;;;;;;;12.67;4.93;;;;;;;14.57;100.00;99635.25;5368420;26;20239;-74
2024/04/09 04:08:20;;;;;;;10.57;3.80;;;;;;;14.56;100.00;99637.09;5371447;26;20237;-73
2024/04/09 04:10:55;;;;;;;13.13;4.27;;;;;;;14.54;100.00;99620.31;5378971;26;20239;-74
2024/04/09 04:13:25;;;;;;;10.87;4.03;;;;;;;14.55;100.00;99621.16;5371333;26;20785;-73
2024/04/09 04:16:04;;;;;;;9.10;4.47;;;;;;;14.58;100.00;99623.53;5370923;26;20315;-73
2024/04/09 04:18:30;;;;;;;10.27;5.03;;;;;;;14.61;100.00;99619.72;5379935;26;20277;-75
2024/04/09 04:20:58;;;;;;;11.67;4.43;;;;;;;14.61;100.00;99619.72;5370260;26;20295;-72
2024/04/09 04:23:24;;;;;;;11.13;4.63;;;;;;;14.61;100.00;99619.72;5361467;26;20244;-75
2024/04/09 04:25:57;;;;;;;9.97;4.80;;;;;;;14.62;100.00;99614.22;5378621;26;20239;-75
2024/04/09 04:28:26;;;;;;;11.27;4.60;;;;;;;14.63;100.00;99605.19;5378104;26;20228;-74
2024/04/09 04:30:54;;;;;;;15.70;5.67;;;;;;;14.63;100.00;99607.03;5362342;26;20935;-74
2024/04/09 04:33:20;;;;;;;13.50;5.20;;;;;;;14.64;100.00;99598.00;5361757;26;20227;-73
2024/04/09 04:35:48;;;;;;;9.30;5.50;;;;;;;14.65;100.00;99605.03;5358424;26;20273;-73
2024/04/09 04:38:14;;;;;;;13.73;5.37;;;;;;;14.66;100.00;99591.50;5355447;26;20247;-73
2024/04/09 04:40:42;;;;;;;11.23;5.10;;;;;;;14.68;100.00;99599.41;5365079;26;20335;-73
2024/04/09 04:43:08;;;;;;;12.10;5.00;;;;;;;14.69;100.00;99601.09;5363116;26;20237;-73
2024/04/09 04:45:39;;;;;;;10.10;4.83;;;;;;;14.69;100.00;99601.09;5361312;26;20295;-73
2024/04/09 04:48:05;;;;;;;15.00;5.20;;;;;;;14.68;100.00;99602.91;5358018;26;20997;-74
2024/04/09 04:50:33;;;;;;;10.60;4.53;;;;;;;14.69;100.00;99606.44;5375839;26;20228;-73
2024/04/09 04:53:01;;;;;;;15.73;4.40;;;;;;;14.68;100.00;99600.25;5366329;26;20228;-74
2024/04/09 04:55:29;;;;;;;14.80;5.33;;;;;;;14.69;100.00;99601.91;5362423;26;20675;-73
2024/04/09 04:57:55;;;;;;;9.53;4.27;;;;;;;14.70;100.00;99603.59;5364375;26;20262;-73
2024/04/09 05:00:23;;;;;;;15.40;4.03;;;;;;;14.67;100.00;99608.44;5362149;26;20553;-73
2024/04/09 05:02:51;;;;;;;12.13;3.47;;;;;;;14.68;100.00;99612.78;5361512;26;20243;-73
2024/04/09 05:05:20;;;;;;;15.33;3.67;;;;;;;14.66;100.00;99617.47;5365888;26;20308;-73
2024/04/09 05:07:48;;;;;;;14.57;3.83;;;;;;;14.66;100.00;99622.81;5371094;26;20234;-78
2024/04/09 05:10:16;;;;;;;16.03;5.07;;;;;;;14.66;100.00;99615.63;5385703;26;20240;-78
2024/04/09 05:12:46;;;;;;;11.37;4.80;;;;;;;14.70;100.00;99619.66;5380923;26;20240;-78
2024/04/09 05:15:14;;;;;;;8.50;3.97;;;;;;;14.73;100.00;99607.81;5377492;26;20283;-80
2024/04/09 05:17:40;;;;;;;8.77;3.40;;;;;;;14.76;100.00;99612.88;5374192;26;20236;-77
2024/04/09 05:20:14;;;;;;;10.33;3.77;;;;;;;14.77;100.00;99618.09;5379694;26;20235;-79
2024/04/09 05:22:41;;;;;;;15.03;4.43;;;;;;;14.77;100.00;99611.88;5374498;26;20336;-78
2024/04/09 05:25:09;;;;;;;13.77;3.67;;;;;;;14.77;100.00;99612.72;5394781;26;20240;-79
2024/04/09 05:27:35;;;;;;;12.70;4.47;;;;;;;14.79;100.00;99612.59;5375509;26;20850;-80
2024/04/09 05:30:04;;;;;;;15.50;4.20;;;;;;;14.80;100.00;99623.16;5386920;26;20296;-80
2024/04/09 05:32:31;;;;;;;14.73;3.93;;;;;;;14.81;100.00;99624.00;5372396;26;20269;-79
2024/04/09 05:34:59;;;;;;;18.30;4.07;;;;;;;14.81;100.00;99634.72;5381049;26;20243;-79
2024/04/09 05:37:28;;;;;;;16.30;4.23;;;;;;;14.80;100.00;99652.66;5380633;26;20233;-81
2024/04/09 05:39:58;;;;;;;14.53;4.13;;;;;;;14.80;96.11;99668.72;5381070;26;20781;-80
2024/04/09 05:42:23;;;;;;;13.50;4.17;;;;;;;14.82;94.09;99687.34;5390637;26;20267;-81
2024/04/09 05:44:52;;;;;;;18.27;5.23;;;;;;;14.87;89.22;99701.97;5382978;26;20539;-81
2024/04/09 05:47:18;;;;;;;22.53;4.30;;;;;;;14.99;89.93;99716.06;5391939;26;20263;-80
2024/04/09 05:49:47;;;;;;;9.27;3.80;;;;;;;15.15;91.91;99732.34;5394682;26;20279;-80
2024/04/09 05:52:13;;;;;;;15.33;4.33;;;;;;;15.28;91.86;99730.16;5396184;26;20735;-80
2024/04/09 05:54:46;;;;;;;13.67;4.13;;;;;;;15.40;90.11;99729.97;5393079;26;20913;-80
2024/04/09 05:57:11;;;;;;;17.60;3.63;;;;;;;15.49;86.08;99731.75;5383302;26;20752;-80
2024/04/09 05:59:40;;;;;;;13.20;4.33;;;;;;;15.52;85.05;99729.59;5372938;26;20237;-80
2024/04/09 06:02:06;;;;;;;23.03;4.63;;;;;;;15.61;82.63;99750.19;5390537;26;20229;-79
2024/04/09 06:04:34;;;;;;;16.70;5.17;;;;;;;15.71;83.49;99754.66;5392174;26;20335;-78
2024/04/09 06:07:01;;;;;;;14.67;4.10;;;;;;;15.79;84.79;99746.69;5382985;26;20631;-78
2024/04/09 06:09:30;;;;;;;20.17;8.80;;;;;;;15.85;82.67;99752.28;5394209;26;20784;-78
2024/04/09 06:11:58;;;;;;;13.97;3.93;;;;;;;15.89;81.03;99742.09;5387347;26;20242;-77
2024/04/09 06:14:26;;;;;;;19.43;3.37;;;;;;;15.93;80.17;99755.06;5383751;26;20304;-79
2024/04/09 06:16:52;;;;;;;15.10;3.60;;;;;;;15.98;79.08;99755.44;5388879;26;20277;-80
2024/04/09 06:19:21;;;;;;;17.40;3.57;;;;;;;16.07;78.12;99766.28;5380815;26;20237;-79
2024/04/09 06:21:46;;;;;;;18.73;3.90;;;;;;;16.15;77.38;99771.69;5386989;26;20230;-78
2024/04/09 06:24:15;;;;;;;15.27;3.47;;;;;;;16.21;77.06;99779.16;5380026;26;20285;-78
2024/04/09 06:26:40;;;;;;;13.00;3.43;;;;;;;16.29;76.36;99780.09;5393939;26;20234;-77
2024/04/09 06:29:11;;;;;;;19.80;5.07;;;;;;;16.35;76.30;99778.59;5380602;26;20280;-78
2024/04/09 06:31:37;;;;;;;17.90;4.23;;;;;;;16.43;75.91;99784.06;5394041;26;20242;-78
2024/04/09 06:34:06;;;;;;;15.17;4.07;;;;;;;16.50;75.80;99778.88;5388346;26;20276;-78
2024/04/09 06:36:31;;;;;;;14.03;3.90;;;;;;;16.54;76.03;99775.72;5381052;26;20234;-78
2024/04/09 06:39:00;;;;;;;17.00;4.70;;;;;;;16.58;76.01;99771.75;5374061;26;20317;-78
2024/04/09 06:41:25;;;;;;;19.43;5.20;;;;;;;16.61;76.75;99749.06;5378702;26;20231;-78
2024/04/09 06:43:53;;;;;;;12.43;3.73;;;;;;;16.63;77.08;99721.06;5375506;26;20776;-78
2024/04/09 06:46:22;;;;;;;11.97;3.67;;;;;;;16.69;76.96;99726.78;5381702;26;20239;-79
2024/04/09 06:48:52;;;;;;;17.70;4.07;;;;;;;16.69;76.95;99740.25;5376403;26;20262;-78
2024/04/09 06:51:17;;;;;;;12.60;3.73;;;;;;;16.71;76.70;99749.00;5394114;26;20278;-79
2024/04/09 06:53:45;;;;;;;10.20;2.97;;;;;;;16.74;76.50;99756.75;5386163;26;20695;-79
2024/04/09 06:56:11;;;;;;;12.23;3.20;;;;;;;16.78;75.70;99766.19;5385620;26;20232;-78
2024/04/09 06:58:40;;;;;;;18.00;3.30;;;;;;;16.80;75.48;99780.34;5380321;26;20240;-77
2024/04/09 07:01:06;;;;;;;17.67;3.43;;;;;;;16.83;75.13;99780.88;5376177;26;20267;-78
2024/04/09 07:03:37;;;;;;;15.00;4.00;;;;;;;16.87;75.11;99776.84;5387332;26;20530;-78
2024/04/09 07:06:03;;;;;;;10.07;3.50;;;;;;;16.89;74.95;99768.59;5390459;26;20241;-78
2024/04/09 07:08:31;;;;;;;9.63;3.50;;;;;;;16.92;75.73;99782.59;5389840;26;20240;-78
2024/04/09 07:10:57;;;;;;;12.93;4.07;;;;;;;16.95;76.35;99784.97;5396905;26;20278;-78
2024/04/09 07:13:25;;;;;;;12.47;3.60;;;;;;;16.98;77.81;99784.66;5387782;26;20230;-80
2024/04/09 07:15:51;;;;;;;8.97;3.03;;;;;;;17.01;79.05;99786.19;5381998;26;20350;-79
2024/04/09 07:18:19;;;;;;;13.00;4.33;;;;;;;17.03;79.35;99789.53;5393912;26;20723;-78
2024/04/09 07:20:49;;;;;;;14.57;4.17;;;;;;;17.05;80.11;99806.34;5378364;26;20252;-78
2024/04/09 07:23:17;;;;;;;15.80;4.37;;;;;;;17.07;80.62;99782.00;5380623;26;20252;-78
2024/04/09 07:25:43;;;;;;;18.43;4.03;;;;;;;17.09;80.51;99769.22;5386507;26;20247;-77
2024/04/09 07:28:11;;;;;;;17.03;3.70;;;;;;;17.11;81.40;99792.28;5371644;26;20280;-78
2024/04/09 07:30:37;;;;;;;12.93;3.67;;;;;;;17.12;81.17;99810.13;5391324;26;20654;-78
2024/04/09 07:33:05;;;;;;;14.27;3.90;;;;;;;17.15;80.77;99820.56;5387706;26;20252;-78
2024/04/09 07:35:31;;;;;;;14.73;4.47;;;;;;;17.19;80.80;99831.84;5371656;26;20292;-78
2024/04/09 07:38:02;;;;;;;16.07;4.10;;;;;;;17.21;80.04;99829.81;5380106;26;20240;-78
2024/04/09 07:40:31;;;;;;;18.70;4.67;;;;;;;17.25;80.41;99823.13;5383234;26;20378;-78
2024/04/09 07:42:57;;;;;;;21.03;5.53;;;;;;;17.29;80.95;99841.50;5382465;26;20242;-79
2024/04/09 07:45:26;;;;;;;14.63;6.07;;;;;;;17.34;80.91;99849.94;5374101;26;20362;-78
2024/04/09 07:47:53;;;;;;;13.37;4.07;;;;;;;17.39;81.69;99838.66;5387386;26;20794;-77
2024/04/09 07:50:21;;;;;;;17.50;5.50;;;;;;;17.46;81.67;99855.88;5393273;26;20583;-78
2024/04/09 07:52:47;;;;;;;12.73;4.10;;;;;;;17.52;82.89;99846.31;5386488;26;20239;-78
2024/04/09 07:55:18;;;;;;;12.57;4.77;;;;;;;17.57;82.92;99855.59;5381579;26;20246;-78
2024/04/09 07:57:44;;;;;;;19.83;6.57;;;;;;;17.63;82.69;99856.81;5387623;26;20697;-78
2024/04/09 08:00:17;;;;;;;15.70;5.53;;;;;;;17.66;81.56;99870.81;5383629;26;20232;-78
2024/04/09 08:02:43;;;;;;;11.37;4.13;;;;;;;17.71;79.97;99873.03;5390753;26;20231;-78
2024/04/09 08:05:12;;;;;;;16.87;5.70;;;;;;;17.72;79.80;99863.97;5395413;26;20320;-78
2024/04/09 08:07:39;;;;;;;10.53;4.20;;;;;;;17.73;79.76;99865.66;5389941;26;20289;-77
2024/04/09 08:10:11;;;;;;;10.23;4.47;;;;;;;17.75;78.97;99855.53;5378980;26;20241;-78
2024/04/09 08:12:41;;;;;;;8.43;4.20;;;;;;;17.72;76.46;99853.19;5385816;26;20241;-78
2024/04/09 08:15:10;;;;;;;10.47;4.63;;;;;;;17.71;76.61;99854.19;5382570;26;20502;-78
2024/04/09 08:17:36;;;;;;;13.43;4.23;;;;;;;17.71;75.99;99843.41;5388371;26;20245;-79
2024/04/09 08:20:07;;;;;;;11.80;4.17;;;;;;;17.72;76.11;99852.34;5405356;26;20317;-79
2024/04/09 08:22:33;;;;;;;10.83;4.57;;;;;;;17.75;75.37;99846.59;5381214;26;20783;-79
2024/04/09 08:25:02;;;;;;;12.93;5.30;;;;;;;17.76;75.52;99846.44;5409477;26;20233;-80
2024/04/09 08:27:27;;;;;;;15.50;6.00;;;;;;;17.78;75.76;99863.28;5397797;26;20673;-79
2024/04/09 08:30:01;;;;;;;10.50;2.90;;;;;;;17.82;76.12;99850.34;5397179;26;20237;-82
2024/04/09 08:32:29;;;;;;;7.57;3.20;;;;;;;17.85;75.39;99866.19;5395349;26;20237;-79
2024/04/09 08:34:58;;;;;;;6.60;3.07;;;;;;;17.85;74.64;99874.25;5396202;26;20234;-78
2024/04/09 08:37:23;;;;;;;11.53;2.87;;;;;;;17.85;73.58;99879.66;5399631;26;20271;-79
2024/04/09 08:39:55;;;;;;;5.17;2.70;;;;;;;17.82;73.73;99894.28;5399399;26;20726;-79
2024/04/09 08:42:21;;;;;;;5.60;2.97;;;;;;;17.80;73.76;99909.75;5390858;26;20304;-78
2024/04/09 08:44:51;;;;;;;6.50;2.73;;;;;;;17.82;74.57;99917.69;5381306;26;22142;-79
2024/04/09 08:47:21;;;;;;;5.13;2.80;;;;;;;17.77;74.14;99911.94;5391150;26;20554;-80
2024/04/09 08:49:51;;;;;;;6.87;2.80;;;;;;;17.78;75.34;99917.16;5393149;26;20242;-79
2024/04/09 08:52:18;;;;;;;9.73;3.77;;;;;;;17.79;75.41;99918.00;5399905;26;20292;-79
2024/04/09 08:54:47;;;;;;;9.67;3.73;;;;;;;17.80;74.42;99925.91;5399352;26;20267;-79
2024/04/09 08:57:12;;;;;;;5.93;2.60;;;;;;;17.81;74.82;99933.00;5391244;26;20466;-79
2024/04/09 08:59:41;;;;;;;7.30;3.00;;;;;;;17.82;75.08;99945.47;5383579;26;20230;-78
2024/04/09 09:02:10;;;;;;;4.43;2.10;;;;;;;17.87;75.54;99953.91;5397955;26;20351;-78
2024/04/09 09:04:41;;;;;;;7.57;2.10;;;;;;;17.95;76.53;99959.31;5391285;26;20285;-79
2024/04/09 09:07:13;;;;;;;5.70;2.30;;;;;;;18.05;77.55;99959.22;5390506;26;20244;-80
2024/04/09 09:09:41;;;;;;;7.13;2.23;;;;;;;18.14;77.47;99965.47;5398384;26;20658;-78
2024/04/09 09:12:08;;;;;;;4.20;1.67;;;;;;;18.22;76.92;99969.06;5393103;26;20788;-79
2024/04/09 09:14:36;;;;;;;4.70;1.63;;;;;;;18.32;76.61;99977.84;5399917;26;20291;-78
2024/04/09 09:17:03;;;;;;;5.40;2.30;;;;;;;18.41;76.02;99984.13;5391251;26;20338;-78
2024/04/09 09:19:32;;;;;;;7.93;2.40;;;;;;;18.49;74.55;99994.06;5394610;26;20239;-79
2024/04/09 09:22:02;;;;;;;10.47;3.50;;;;;;;18.57;73.25;99978.78;5396987;26;20351;-78
2024/04/09 09:24:30;;;;;;;4.83;3.47;;;;;;;18.66;74.18;99988.59;5393172;26;20246;-79
2024/04/09 09:26:59;;;;;;;8.67;4.33;;;;;;;18.80;73.08;99980.88;5394584;26;20242;-78
2024/04/09 09:29:27;;;;;;;9.23;6.53;;;;;;;18.94;73.72;99985.63;5385140;26;20263;-78
2024/04/09 09:31:53;;;;;;;9.23;4.37;;;;;;;19.06;73.33;99986.97;5388357;26;20277;-79
2024/04/09 09:34:29;;;;;;;8.80;4.60;;;;;;;19.15;72.68;99991.38;5389184;26;20242;-79
2024/04/09 09:36:58;;;;;;;6.60;4.33;;;;;;;19.16;71.53;99979.56;5372097;26;20254;-78
2024/04/09 09:39:30;;;;;;;5.70;4.13;;;;;;;19.17;71.66;99986.63;5384821;26;20247;-79
2024/04/09 09:41:57;;;;;;;6.83;4.50;;;;;;;19.18;71.84;99982.91;5385227;26;20231;-79
2024/04/09 09:44:27;;;;;;;9.63;5.27;;;;;;;19.18;71.51;99982.91;5390890;26;20469;-79
2024/04/09 09:46:53;;;;;;;6.87;4.63;;;;;;;19.15;71.33;99980.59;5362232;26;20244;-79
2024/04/09 09:49:22;;;;;;;8.27;4.00;;;;;;;19.14;70.47;99981.59;5373035;26;20277;-78
2024/04/09 09:51:49;;;;;;;7.47;4.10;;;;;;;19.09;70.28;99973.16;5385892;26;20235;-79
2024/04/09 09:54:17;;;;;;;5.20;4.03;;;;;;;19.08;70.16;99985.78;5391983;26;20242;-78
2024/04/09 09:56:49;;;;;;;5.70;4.00;;;;;;;19.10;71.41;99996.44;5384836;26;20245;-78
2024/04/09 09:59:19;;;;;;;5.77;4.50;;;;;;;19.12;71.02;99998.97;5375588;26;20231;-79
2024/04/09 10:01:48;;;;;;;7.67;4.33;;;;;;;19.14;71.41;100005.03;5393463;26;20288;-78
2024/04/09 10:04:17;;;;;;;7.47;3.80;;;;;;;19.17;71.01;100002.00;5396687;26;20281;-78
2024/04/09 10:06:54;;;;;;;6.33;3.77;;;;;;;19.18;70.62;100007.22;5381898;26;20279;-78
2024/04/09 10:09:43;;;;;;;7.50;4.10;;;;;;;19.19;71.29;100011.59;5385901;26;20230;-79
2024/04/09 10:12:22;;;;;;;6.83;5.03;;;;;;;19.20;71.75;100018.69;5392591;26;20647;-79
2024/04/09 10:15:00;;;;;;;9.03;4.43;;;;;;;19.25;72.32;100015.50;5390455;26;20907;-78
2024/04/09 10:17:45;;;;;;;7.83;4.50;;;;;;;19.27;72.23;100025.13;5386014;26;20281;-78
2024/04/09 10:20:19;;;;;;;6.73;3.87;;;;;;;19.32;72.40;100036.25;5383645;26;20279;-77
2024/04/09 10:22:45;;;;;;;6.67;4.10;;;;;;;19.31;71.05;100037.28;5370382;26;20752;-78
2024/04/09 10:25:18;;;;;;;8.13;3.90;;;;;;;19.31;71.21;100031.88;5382859;26;20235;-78
2024/04/09 10:27:47;;;;;;;7.57;3.60;;;;;;;19.32;71.37;100036.25;5381171;26;20355;-78
2024/04/09 10:30:17;;;;;;;7.90;3.93;;;;;;;19.32;69.96;100036.25;5402764;26;20275;-80
2024/04/09 10:32:55;;;;;;;7.63;4.40;;;;;;;19.29;70.33;100049.25;5378678;26;20235;-79
2024/04/09 10:35:23;;;;;;;7.60;4.83;;;;;;;19.30;70.92;100049.09;5391671;26;20239;-79
2024/04/09 10:37:51;;;;;;;4.57;3.67;;;;;;;19.32;70.66;100055.16;5376410;26;20715;-79
2024/04/09 10:40:19;;;;;;;6.60;3.90;;;;;;;19.34;71.10;100063.94;5390762;26;20280;-79
2024/04/09 10:42:48;;;;;;;6.27;3.53;;;;;;;19.38;70.61;100065.28;5380082;26;20236;-79
2024/04/09 10:45:17;;;;;;;5.60;3.60;;;;;;;19.41;69.09;100072.19;5383368;26;20243;-79
2024/04/09 10:47:44;;;;;;;6.03;3.80;;;;;;;19.37;68.47;100074.38;5388751;26;20240;-80
2024/04/09 10:50:13;;;;;;;6.00;3.70;;;;;;;19.37;69.59;100070.84;5386502;26;20311;-80
2024/04/09 10:52:40;;;;;;;8.20;4.60;;;;;;;19.42;69.66;100072.03;5373921;26;20574;-79
2024/04/09 10:55:12;;;;;;;8.17;3.73;;;;;;;19.48;68.86;100069.69;5376177;26;20656;-80
2024/04/09 10:57:38;;;;;;;5.43;4.00;;;;;;;19.54;69.13;100071.72;5385039;26;20506;-79
2024/04/09 11:00:15;;;;;;;5.77;3.20;;;;;;;19.59;68.27;100064.81;5377185;26;20274;-79
2024/04/09 11:02:42;;;;;;;5.37;2.80;;;;;;;19.61;67.13;100076.28;5381677;26;20236;-79
2024/04/09 11:05:11;;;;;;;3.03;2.10;;;;;;;19.60;64.30;100084.56;5370981;26;20239;-79
2024/04/09 11:07:38;;;;;;;3.07;2.20;;;;;;;19.56;64.15;100085.91;5374313;26;20752;-80
2024/04/09 11:10:09;;;;;;;2.97;2.20;;;;;;;19.53;64.01;100089.78;5372199;26;20279;-79
2024/04/09 11:12:36;;;;;;;5.27;2.40;;;;;;;19.48;65.19;100099.41;5384412;26;20233;-80
2024/04/09 11:15:05;;;;;;;4.47;2.30;;;;;;;19.46;65.35;100101.41;5379819;26;20318;-77
2024/04/09 11:17:34;;;;;;;3.40;2.43;;;;;;;19.45;65.66;100105.13;5367800;26;20335;-79
2024/04/09 11:20:14;;;;;;;3.83;3.10;;;;;;;19.42;66.41;100106.31;5372467;26;20241;-78
2024/04/09 11:22:43;;;;;;;3.80;2.73;;;;;;;19.38;67.16;100121.97;5361200;26;20434;-78
2024/04/09 11:25:13;;;;;;;4.43;2.77;;;;;;;19.33;66.29;100137.88;5370519;26;20240;-78
2024/04/09 11:27:39;;;;;;;4.13;3.20;;;;;;;19.19;67.57;100146.56;5367613;26;20248;-80
2024/04/09 11:30:11;;;;;;;4.20;2.57;;;;;;;19.05;70.51;100166.97;5379005;26;20347;-78